AAL2351 MMMX-KSAN
Flight info
| Callsign | AAL2351 |
|---|---|
| Flight time | N/A |
| Altitude | 34000 |
| Route | ATURO2A ATURO UT133 OTAKA UT134 ZCL UT10 PPE UJ7 MXL/N0385F180 V137 NOVOS/N0375F160 V137 IPL LUCKI1 |
| Aircraft | B738/M-SDE2E3FGHIRWXY/LB1 |
Departure
| Time | N/A |
|---|---|
| Airport | Mexico City Benito Juárez International Airport (MMMX) |
Arrival
| Time | 2026-04-24 16:44 |
|---|---|
| Airport | San Diego International Airport (KSAN) |
| Time | Latitude | Longitude | Altitude | Speed | Heading |
|---|---|---|---|---|---|
| 2026-04-24 16:22 | 32.73277 | -115.47157 | 26600 ft | 391 kts | 293° |
| 2026-04-24 16:22 | 32.74424 | -115.50057 | 26024 ft | 384 kts | 285° |
| 2026-04-24 16:23 | 32.74966 | -115.53110 | 25533 ft | 375 kts | 273° |
| 2026-04-24 16:23 | 32.75046 | -115.56180 | 25078 ft | 371 kts | 269° |
| 2026-04-24 16:23 | 32.75047 | -115.59241 | 24617 ft | 378 kts | 269° |
| 2026-04-24 16:24 | 32.75024 | -115.65527 | 23652 ft | 379 kts | 269° |
| 2026-04-24 16:24 | 32.75022 | -115.68643 | 23169 ft | 375 kts | 269° |
| 2026-04-24 16:24 | 32.75027 | -115.71727 | 22707 ft | 372 kts | 269° |
| 2026-04-24 16:24 | 32.75037 | -115.74787 | 22243 ft | 370 kts | 269° |
| 2026-04-24 16:25 | 32.75051 | -115.77833 | 21780 ft | 368 kts | 269° |
| 2026-04-24 16:25 | 32.75064 | -115.80861 | 21320 ft | 366 kts | 269° |
| 2026-04-24 16:25 | 32.75078 | -115.83877 | 20863 ft | 365 kts | 269° |
| 2026-04-24 16:26 | 32.75104 | -115.89891 | 19946 ft | 363 kts | 269° |
| 2026-04-24 16:26 | 32.75116 | -115.92882 | 19492 ft | 362 kts | 269° |
| 2026-04-24 16:26 | 32.75138 | -115.98835 | 18589 ft | 360 kts | 269° |
| 2026-04-24 16:27 | 32.75147 | -116.01808 | 18137 ft | 358 kts | 269° |
| 2026-04-24 16:27 | 32.75156 | -116.04760 | 17687 ft | 357 kts | 269° |
| 2026-04-24 16:27 | 32.75164 | -116.07703 | 17240 ft | 355 kts | 269° |
| 2026-04-24 16:27 | 32.75172 | -116.10590 | 16800 ft | 354 kts | 269° |
| 2026-04-24 16:28 | 32.75179 | -116.13507 | 16365 ft | 353 kts | 269° |
| 2026-04-24 16:28 | 32.75186 | -116.16422 | 15950 ft | 351 kts | 269° |
| 2026-04-24 16:28 | 32.75197 | -116.22198 | 15102 ft | 348 kts | 269° |
| 2026-04-24 16:29 | 32.75201 | -116.25039 | 14658 ft | 337 kts | 269° |
| 2026-04-24 16:29 | 32.75204 | -116.27770 | 14226 ft | 323 kts | 269° |
| 2026-04-24 16:29 | 32.74936 | -116.32887 | 13448 ft | 301 kts | 264° |
| 2026-04-24 16:30 | 32.74505 | -116.37806 | 12747 ft | 303 kts | 263° |
| 2026-04-24 16:30 | 32.74296 | -116.40318 | 12381 ft | 307 kts | 264° |
| 2026-04-24 16:30 | 32.74095 | -116.42836 | 11981 ft | 305 kts | 264° |
| 2026-04-24 16:31 | 32.73898 | -116.45329 | 11602 ft | 300 kts | 264° |
| 2026-04-24 16:31 | 32.73709 | -116.47754 | 11241 ft | 289 kts | 264° |
| 2026-04-24 16:31 | 32.73523 | -116.50101 | 10870 ft | 281 kts | 264° |
| 2026-04-24 16:31 | 32.73316 | -116.52385 | 10532 ft | 276 kts | 263° |
| 2026-04-24 16:32 | 32.73169 | -116.53881 | 10320 ft | 275 kts | 262° |
| 2026-04-24 16:32 | 32.72877 | -116.56853 | 9849 ft | 267 kts | 262° |
| 2026-04-24 16:32 | 32.72667 | -116.59010 | 9537 ft | 267 kts | 262° |
| 2026-04-24 16:32 | 32.72453 | -116.61208 | 9207 ft | 268 kts | 262° |
| 2026-04-24 16:33 | 32.72238 | -116.63414 | 8867 ft | 270 kts | 262° |
| 2026-04-24 16:33 | 32.72021 | -116.65636 | 8534 ft | 271 kts | 262° |
| 2026-04-24 16:33 | 32.71834 | -116.67871 | 8188 ft | 273 kts | 264° |
| 2026-04-24 16:33 | 32.71661 | -116.70119 | 7851 ft | 273 kts | 264° |
| 2026-04-24 16:34 | 32.71547 | -116.71604 | 7619 ft | 273 kts | 264° |
| 2026-04-24 16:34 | 32.71373 | -116.73848 | 7296 ft | 272 kts | 264° |
| 2026-04-24 16:34 | 32.71199 | -116.76072 | 6927 ft | 268 kts | 264° |
| 2026-04-24 16:34 | 32.71030 | -116.78248 | 6601 ft | 262 kts | 264° |
| 2026-04-24 16:35 | 32.70861 | -116.80394 | 6283 ft | 262 kts | 264° |
| 2026-04-24 16:35 | 32.70598 | -116.82536 | 5939 ft | 262 kts | 253° |
| 2026-04-24 16:35 | 32.69958 | -116.84556 | 5662 ft | 261 kts | 248° |
| 2026-04-24 16:35 | 32.69298 | -116.86567 | 5353 ft | 262 kts | 249° |
| 2026-04-24 16:36 | 32.68650 | -116.88585 | 5035 ft | 260 kts | 249° |
| 2026-04-24 16:36 | 32.68048 | -116.90575 | 4725 ft | 252 kts | 250° |
| 2026-04-24 16:36 | 32.67480 | -116.92515 | 4427 ft | 245 kts | 253° |
| 2026-04-24 16:36 | 32.67396 | -116.94482 | 4138 ft | 238 kts | 285° |
| 2026-04-24 16:37 | 32.67937 | -116.96300 | 3899 ft | 230 kts | 287° |
| 2026-04-24 16:37 | 32.68366 | -116.98103 | 3649 ft | 223 kts | 284° |
| 2026-04-24 16:37 | 32.68759 | -116.99816 | 3396 ft | 213 kts | 285° |
| 2026-04-24 16:37 | 32.69162 | -117.01521 | 3139 ft | 210 kts | 285° |
| 2026-04-24 16:38 | 32.69557 | -117.03169 | 2912 ft | 210 kts | 285° |
| 2026-04-24 16:38 | 32.69886 | -117.04859 | 2815 ft | 212 kts | 272° |
| 2026-04-24 16:38 | 32.69513 | -117.06515 | 2795 ft | 210 kts | 235° |
| 2026-04-24 16:38 | 32.68403 | -117.07604 | 2810 ft | 209 kts | 206° |
| 2026-04-24 16:39 | 32.67072 | -117.08315 | 2795 ft | 211 kts | 202° |
| 2026-04-24 16:39 | 32.65645 | -117.08651 | 2642 ft | 214 kts | 173° |
| 2026-04-24 16:39 | 32.64328 | -117.07960 | 2642 ft | 208 kts | 136° |
| 2026-04-24 16:39 | 32.63621 | -117.06492 | 2646 ft | 209 kts | 100° |
| 2026-04-24 16:40 | 32.63779 | -117.04793 | 2656 ft | 211 kts | 64° |
| 2026-04-24 16:40 | 32.64746 | -117.03515 | 2645 ft | 211 kts | 29° |
| 2026-04-24 16:40 | 32.66149 | -117.03149 | 2640 ft | 208 kts | 353° |
| 2026-04-24 16:40 | 32.67431 | -117.03808 | 2634 ft | 197 kts | 319° |
| 2026-04-24 16:41 | 32.68348 | -117.04943 | 2533 ft | 187 kts | 310° |
| 2026-04-24 16:41 | 32.69180 | -117.06075 | 2381 ft | 177 kts | 310° |
| 2026-04-24 16:41 | 32.69960 | -117.07140 | 2216 ft | 170 kts | 310° |
| 2026-04-24 16:41 | 32.70700 | -117.08194 | 2098 ft | 163 kts | 302° |
| 2026-04-24 16:42 | 32.71074 | -117.09473 | 1843 ft | 162 kts | 283° |
| 2026-04-24 16:42 | 32.71369 | -117.10746 | 1633 ft | 158 kts | 285° |
| 2026-04-24 16:42 | 32.71662 | -117.11961 | 1401 ft | 149 kts | 285° |
| 2026-04-24 16:42 | 32.71946 | -117.13130 | 1115 ft | 145 kts | 287° |
| 2026-04-24 16:43 | 32.72220 | -117.14256 | 887 ft | 141 kts | 287° |
| 2026-04-24 16:43 | 32.72493 | -117.15387 | 675 ft | 144 kts | 286° |
| 2026-04-24 16:43 | 32.72766 | -117.16521 | 456 ft | 142 kts | 286° |
| 2026-04-24 16:43 | 32.73037 | -117.17644 | 233 ft | 141 kts | 286° |
| 2026-04-24 16:44 | 32.73314 | -117.18756 | 44 ft | 139 kts | 288° |
| 2026-04-24 16:44 | 32.73567 | -117.19773 | 26 ft | 89 kts | 281° |
| 2026-04-24 16:44 | 32.73599 | -117.20134 | 23 ft | 18 kts | 236° |
| 2026-04-24 16:44 | 32.73520 | -117.20243 | 22 ft | 17 kts | 231° |
| 2026-04-24 16:45 | 32.73457 | -117.20341 | 22 ft | 1 kts | 232° |
| 2026-04-24 16:45 | 32.73455 | -117.20343 | 22 ft | 0 kts | 232° |